createdAt,value
2023-05-24T00:01:57.060Z,15.00
2023-05-24T00:04:25.401Z,13.95
2023-05-24T00:06:55.079Z,15.05
2023-05-24T00:09:22.221Z,11.55
2023-05-24T00:11:48.813Z,18.10
2023-05-24T00:14:15.543Z,15.38
2023-05-24T00:16:42.263Z,23.67
2023-05-24T00:19:11.472Z,13.65
2023-05-24T00:21:38.388Z,18.17
2023-05-24T00:24:05.237Z,15.85
2023-05-24T00:26:31.847Z,13.15
2023-05-24T00:28:58.444Z,12.95
2023-05-24T00:31:25.046Z,11.35
2023-05-24T00:33:51.697Z,16.58
2023-05-24T00:36:18.276Z,22.65
2023-05-24T00:38:44.810Z,17.55
2023-05-24T00:41:11.691Z,18.92
2023-05-24T00:43:38.489Z,19.90
2023-05-24T00:46:32.115Z,21.73
2023-05-24T00:49:00.409Z,14.07
2023-05-24T00:51:28.060Z,17.58
2023-05-24T00:53:55.204Z,18.30
2023-05-24T00:56:22.379Z,16.88
2023-05-24T00:58:50.833Z,16.02
2023-05-24T01:01:17.531Z,15.90
2023-05-24T01:03:44.326Z,18.25
2023-05-24T01:06:15.965Z,14.63
2023-05-24T01:08:51.668Z,17.58
2023-05-24T01:11:29.361Z,17.27
2023-05-24T01:14:02.017Z,17.45
2023-05-24T01:17:05.781Z,20.35
2023-05-24T01:22:12.117Z,10.50
2023-05-24T01:24:53.925Z,20.67
2023-05-24T01:27:22.796Z,14.55
2023-05-24T01:29:53.534Z,21.52
2023-05-24T01:32:20.853Z,22.10
2023-05-24T01:34:47.735Z,20.75
2023-05-24T01:37:14.656Z,23.30
2023-05-24T01:39:42.862Z,17.90
2023-05-24T01:42:18.345Z,15.55
2023-05-24T01:45:03.374Z,16.00
2023-05-24T01:47:51.966Z,21.83
2023-05-24T01:50:42.654Z,18.85
2023-05-24T01:53:13.115Z,18.65
2023-05-24T01:55:40.644Z,23.48
2023-05-24T01:58:09.837Z,21.77
2023-05-24T02:00:38.970Z,20.95
2023-05-24T02:03:06.801Z,25.48
2023-05-24T02:05:33.928Z,19.90
2023-05-24T02:08:00.854Z,22.55
2023-05-24T02:10:27.495Z,23.13
2023-05-24T02:12:54.045Z,18.10
2023-05-24T02:15:20.758Z,18.08
2023-05-24T02:17:48.210Z,21.85
2023-05-24T02:20:14.853Z,19.63
2023-05-24T02:32:38.463Z,15.15
2023-05-24T02:35:05.696Z,16.98
2023-05-24T02:37:32.228Z,17.33
2023-05-24T02:39:58.754Z,22.50
2023-05-24T02:42:25.569Z,16.33
2023-05-24T02:44:52.860Z,17.73
2023-05-24T02:47:19.770Z,16.05
2023-05-24T02:49:46.357Z,25.77
2023-05-24T02:52:13.769Z,16.85
2023-05-24T02:54:40.530Z,21.63
2023-05-24T02:57:07.195Z,15.65
2023-05-24T02:59:33.691Z,25.08
2023-05-24T03:02:00.583Z,14.90
2023-05-24T03:04:27.256Z,20.30
2023-05-24T03:06:53.769Z,25.27
2023-05-24T03:09:20.420Z,20.67
2023-05-24T03:11:46.916Z,18.75
2023-05-24T03:14:13.640Z,19.02
2023-05-24T03:16:40.276Z,23.02
2023-05-24T03:19:09.821Z,24.10
2023-05-24T03:21:36.832Z,18.00
2023-05-24T03:24:03.881Z,19.52
2023-05-24T03:26:30.440Z,22.10
2023-05-24T03:28:57.045Z,19.35
2023-05-24T03:31:26.477Z,16.42
2023-05-24T03:33:53.295Z,19.80
2023-05-24T03:36:21.147Z,21.63
2023-05-24T03:38:47.644Z,15.50
2023-05-24T03:41:14.253Z,22.38
2023-05-24T03:43:40.778Z,20.65
2023-05-24T03:46:07.426Z,18.48
2023-05-24T03:48:33.987Z,14.38
2023-05-24T03:51:00.698Z,18.92
2023-05-24T03:53:28.436Z,23.60
2023-05-24T03:55:55.184Z,21.42
2023-05-24T03:58:22.410Z,22.05
2023-05-24T04:00:49.118Z,21.77
2023-05-24T04:03:15.855Z,22.70
2023-05-24T04:05:42.488Z,20.55
2023-05-24T04:08:09.067Z,15.68
2023-05-24T04:10:36.983Z,17.58
2023-05-24T04:13:03.733Z,21.23
2023-05-24T04:15:31.024Z,24.48
2023-05-24T04:17:57.828Z,21.45
2023-05-24T04:20:25.569Z,24.30
2023-05-24T04:22:52.544Z,16.70
2023-05-24T04:25:19.277Z,19.27
2023-05-24T04:27:48.787Z,19.88
2023-05-24T04:30:16.635Z,17.08
2023-05-24T04:32:47.505Z,16.88
2023-05-24T04:35:14.457Z,17.90
2023-05-24T04:37:41.262Z,18.17
2023-05-24T04:40:10.392Z,20.15
2023-05-24T04:42:36.904Z,21.25
2023-05-24T04:45:03.609Z,23.83
2023-05-24T04:47:30.173Z,21.65
2023-05-24T04:49:56.804Z,18.38
2023-05-24T04:52:23.401Z,17.63
2023-05-24T04:54:51.104Z,17.88
2023-05-24T04:57:17.622Z,19.33
2023-05-24T04:59:44.454Z,21.50
2023-05-24T05:02:11.225Z,21.00
2023-05-24T05:04:38.027Z,17.33
2023-05-24T05:07:04.902Z,19.75
2023-05-24T05:09:31.471Z,19.92
2023-05-24T05:11:58.554Z,20.60
2023-05-24T05:14:25.390Z,22.90
2023-05-24T05:16:52.099Z,16.08
2023-05-24T05:19:19.025Z,16.73
2023-05-24T05:21:45.911Z,18.98
2023-05-24T05:24:14.979Z,19.17
2023-05-24T05:26:41.796Z,17.73
2023-05-24T05:29:08.328Z,20.23
2023-05-24T05:31:34.917Z,18.48
2023-05-24T05:34:01.497Z,18.35
2023-05-24T05:36:28.240Z,15.43
2023-05-24T05:38:54.931Z,19.65
2023-05-24T05:41:22.138Z,16.92
2023-05-24T05:43:48.712Z,14.52
2023-05-24T05:46:16.103Z,19.27
2023-05-24T05:48:44.278Z,20.17
2023-05-24T05:51:12.888Z,20.20
2023-05-24T05:53:39.405Z,17.45
2023-05-24T05:56:06.256Z,14.90
2023-05-24T05:58:32.776Z,16.83
2023-05-24T06:00:59.381Z,17.77
2023-05-24T06:03:26.173Z,21.38
2023-05-24T06:05:52.960Z,11.93
2023-05-24T06:08:19.629Z,19.05
2023-05-24T06:10:46.314Z,18.05
2023-05-24T06:13:13.752Z,18.05
2023-05-24T06:15:40.707Z,21.00
2023-05-24T06:18:07.362Z,19.98
2023-05-24T06:20:33.990Z,16.77
2023-05-24T06:23:00.628Z,22.35
2023-05-24T06:25:30.721Z,20.55
2023-05-24T06:27:57.324Z,22.35
2023-05-24T06:30:24.054Z,17.92
2023-05-24T06:32:50.806Z,18.67
2023-05-24T06:35:17.342Z,18.95
2023-05-24T06:37:44.376Z,17.42
2023-05-24T06:40:11.501Z,18.67
2023-05-24T06:42:38.991Z,21.70
2023-05-24T06:45:06.117Z,18.35
2023-05-24T06:47:32.834Z,20.40
2023-05-24T06:50:00.978Z,15.50
2023-05-24T06:52:27.568Z,20.90
2023-05-24T06:54:54.213Z,14.70
2023-05-24T06:57:21.516Z,19.98
2023-05-24T06:59:48.071Z,18.27
2023-05-24T07:02:14.766Z,16.35
2023-05-24T07:04:41.468Z,19.90
2023-05-24T07:07:12.657Z,16.65
2023-05-24T07:09:41.316Z,17.00
2023-05-24T07:12:09.221Z,15.13
2023-05-24T07:14:36.128Z,23.13
2023-05-24T07:17:02.888Z,18.88
2023-05-24T07:19:29.979Z,16.95
2023-05-24T07:21:56.900Z,16.75
2023-05-24T07:24:24.161Z,18.13
2023-05-24T07:26:51.892Z,17.23
2023-05-24T07:29:18.543Z,13.18
2023-05-24T07:31:45.328Z,16.33
2023-05-24T07:34:11.917Z,15.55
2023-05-24T07:36:38.397Z,17.92
2023-05-24T07:39:06.331Z,17.05
2023-05-24T07:41:33.463Z,15.20
2023-05-24T07:44:00.151Z,17.83
2023-05-24T07:46:26.904Z,17.70
2023-05-24T07:48:53.610Z,17.45
2023-05-24T07:51:21.608Z,22.20
2023-05-24T07:53:48.148Z,19.90
2023-05-24T07:56:15.134Z,14.50
2023-05-24T07:58:43.008Z,18.80
2023-05-24T08:01:09.710Z,23.25
2023-05-24T08:03:37.349Z,17.98
2023-05-24T08:06:04.184Z,20.88
2023-05-24T08:08:30.972Z,17.13
2023-05-24T08:10:57.439Z,16.33
2023-05-24T08:13:24.565Z,18.55
2023-05-24T08:15:51.060Z,14.18
2023-05-24T08:18:17.596Z,19.70
2023-05-24T08:20:44.245Z,14.57
2023-05-24T08:23:11.029Z,15.35
2023-05-24T08:25:38.029Z,23.30
2023-05-24T08:28:04.610Z,14.38
2023-05-24T08:30:32.377Z,18.55
2023-05-24T08:35:36.012Z,14.73
2023-05-24T08:38:02.580Z,14.07
2023-05-24T08:40:29.126Z,21.95
2023-05-24T08:42:59.299Z,16.98
2023-05-24T08:45:26.698Z,19.15
2023-05-24T08:47:54.841Z,19.95
2023-05-24T08:50:22.163Z,17.70
2023-05-24T08:52:49.330Z,20.05
2023-05-24T08:55:16.685Z,12.93
2023-05-24T08:57:45.879Z,16.95
2023-05-24T09:00:13.792Z,14.98
2023-05-24T09:02:42.463Z,19.77
2023-05-24T09:05:16.409Z,18.92
2023-05-24T09:07:46.518Z,15.13
2023-05-24T09:10:13.273Z,16.30
2023-05-24T09:12:44.251Z,15.27
2023-05-24T09:15:11.036Z,13.85
2023-05-24T09:17:38.870Z,15.57
2023-05-24T09:20:10.335Z,13.85
2023-05-24T09:22:42.113Z,12.80
2023-05-24T09:25:10.960Z,10.90
2023-05-24T09:27:38.476Z,11.00
2023-05-24T09:30:10.493Z,14.73
2023-05-24T09:32:37.557Z,13.35
2023-05-24T09:35:08.256Z,11.80
2023-05-24T09:37:36.521Z,11.45
2023-05-24T09:40:06.856Z,17.40
2023-05-24T09:42:33.660Z,14.63
2023-05-24T09:45:08.541Z,11.98
2023-05-24T09:47:37.085Z,13.32
2023-05-24T09:50:07.696Z,17.67
2023-05-24T09:52:37.539Z,12.32
2023-05-24T09:55:15.347Z,13.25
2023-05-24T09:58:01.464Z,12.68
2023-05-24T10:00:28.248Z,13.25
2023-05-24T10:03:03.138Z,20.00
2023-05-24T10:05:31.366Z,12.82
2023-05-24T10:07:58.900Z,18.00
2023-05-24T10:10:29.181Z,18.63
2023-05-24T10:12:56.824Z,18.33
2023-05-24T10:15:23.921Z,14.80
2023-05-24T10:17:51.471Z,14.98
2023-05-24T10:20:18.613Z,11.45
2023-05-24T10:22:47.530Z,16.08
2023-05-24T10:25:21.658Z,9.57
2023-05-24T10:27:50.724Z,13.75
2023-05-24T10:30:29.780Z,16.27
2023-05-24T10:32:57.505Z,15.60
2023-05-24T10:35:25.185Z,19.20
2023-05-24T10:37:52.444Z,13.32
2023-05-24T10:40:20.941Z,15.35
2023-05-24T10:42:48.430Z,13.75
2023-05-24T10:45:37.701Z,21.35
2023-05-24T10:48:13.892Z,13.38
2023-05-24T10:50:42.539Z,15.00
2023-05-24T10:53:16.201Z,15.43
2023-05-24T10:55:59.610Z,12.90
2023-05-24T10:58:48.474Z,16.40
2023-05-24T11:01:29.741Z,10.75
2023-05-24T11:04:10.630Z,17.27
2023-05-24T11:06:48.116Z,11.70
2023-05-24T11:09:15.855Z,13.73
2023-05-24T11:11:46.460Z,12.35
2023-05-24T11:14:14.754Z,13.13
2023-05-24T11:16:45.637Z,16.02
2023-05-24T11:19:32.634Z,12.52
2023-05-24T11:21:59.802Z,12.77
2023-05-24T11:24:27.362Z,17.02
2023-05-24T11:26:54.150Z,19.27
2023-05-24T11:29:22.797Z,13.75
2023-05-24T11:31:55.308Z,13.20
2023-05-24T11:34:22.282Z,12.82
2023-05-24T11:36:49.305Z,13.38
2023-05-24T11:39:16.480Z,14.05
2023-05-24T11:41:43.718Z,13.35
2023-05-24T11:44:11.874Z,11.57
2023-05-24T11:46:39.844Z,12.75
2023-05-24T11:49:07.138Z,12.38
2023-05-24T11:51:35.238Z,13.32
2023-05-24T11:54:01.879Z,12.95
2023-05-24T11:56:33.791Z,10.70
2023-05-24T11:59:07.026Z,15.65
2023-05-24T12:01:33.633Z,11.52
2023-05-24T12:04:01.075Z,15.48
2023-05-24T12:06:38.799Z,13.73
2023-05-24T12:09:08.581Z,15.10
2023-05-24T12:11:39.964Z,17.60
2023-05-24T12:14:07.962Z,14.25
2023-05-24T12:16:36.479Z,15.98
2023-05-24T12:19:09.480Z,14.40
2023-05-24T12:21:43.541Z,14.77
2023-05-24T12:24:22.071Z,12.90
2023-05-24T12:26:48.804Z,12.50
2023-05-24T12:29:16.759Z,14.65
2023-05-24T12:31:49.954Z,12.93
2023-05-24T12:34:19.520Z,11.68
2023-05-24T12:36:47.729Z,10.80
2023-05-24T12:39:31.036Z,17.10
2023-05-24T12:41:58.888Z,11.82
2023-05-24T12:44:27.158Z,12.63
2023-05-24T12:46:55.715Z,9.95
2023-05-24T12:49:23.459Z,12.80
2023-05-24T12:51:50.554Z,9.20
2023-05-24T12:54:22.500Z,8.20
2023-05-24T12:56:49.425Z,10.98
2023-05-24T12:59:16.484Z,11.20
2023-05-24T13:01:43.189Z,10.68
2023-05-24T13:04:11.002Z,9.98
2023-05-24T13:06:38.169Z,10.73
2023-05-24T13:09:06.483Z,8.18
2023-05-24T13:11:33.185Z,10.52
2023-05-24T13:13:59.850Z,11.10
2023-05-24T13:16:26.714Z,12.02
2023-05-24T13:18:53.375Z,10.05
2023-05-24T13:21:20.562Z,14.50
2023-05-24T13:23:47.560Z,14.88
2023-05-24T13:26:14.481Z,12.07
2023-05-24T13:28:58.611Z,10.38
2023-05-24T13:31:27.885Z,11.95
2023-05-24T13:33:54.673Z,6.88
2023-05-24T13:36:21.229Z,7.28
2023-05-24T13:38:48.666Z,12.45
2023-05-24T13:41:17.347Z,9.95
2023-05-24T13:43:43.863Z,8.00
2023-05-24T13:46:12.325Z,12.02
2023-05-24T13:48:39.106Z,9.98
2023-05-24T13:51:05.726Z,9.90
2023-05-24T13:53:32.341Z,14.10
2023-05-24T13:55:58.891Z,9.63
2023-05-24T13:58:26.128Z,13.88
2023-05-24T14:00:52.667Z,9.32
2023-05-24T14:03:19.386Z,13.88
2023-05-24T14:05:46.143Z,8.32
2023-05-24T14:08:12.888Z,11.05
2023-05-24T14:10:39.479Z,9.35
2023-05-24T14:15:36.665Z,11.40
2023-05-24T14:18:07.854Z,9.50
2023-05-24T14:20:38.155Z,7.43
2023-05-24T14:23:05.325Z,8.65
2023-05-24T14:25:32.151Z,12.73
2023-05-24T14:27:59.279Z,11.13
2023-05-24T14:30:28.656Z,8.00
2023-05-24T14:32:55.597Z,9.02
2023-05-24T14:35:22.234Z,7.82
2023-05-24T14:37:48.826Z,8.50
2023-05-24T14:40:17.661Z,10.48
2023-05-24T14:42:45.816Z,10.73
2023-05-24T14:45:12.788Z,9.15
2023-05-24T14:47:39.364Z,5.10
2023-05-24T14:50:06.947Z,9.18
2023-05-24T14:52:33.499Z,9.43
2023-05-24T14:54:59.971Z,8.55
2023-05-24T14:57:26.608Z,8.65
2023-05-24T14:59:53.163Z,7.10
2023-05-24T15:02:19.680Z,7.85
2023-05-24T15:04:46.156Z,8.75
2023-05-24T15:07:12.782Z,9.70
2023-05-24T15:09:39.273Z,9.65
2023-05-24T15:12:07.687Z,7.28
2023-05-24T15:14:34.495Z,8.63
2023-05-24T15:17:01.168Z,8.18
2023-05-24T15:19:28.005Z,12.18
2023-05-24T15:21:54.694Z,6.45
2023-05-24T15:24:21.274Z,10.25
2023-05-24T15:26:48.382Z,8.95
2023-05-24T15:29:14.961Z,6.85
2023-05-24T15:31:41.707Z,8.25
2023-05-24T15:34:08.402Z,7.28
2023-05-24T15:36:34.924Z,7.55
2023-05-24T15:39:01.640Z,8.65
2023-05-24T15:41:28.313Z,10.40
2023-05-24T15:43:54.911Z,10.80
2023-05-24T15:46:22.018Z,6.70
2023-05-24T15:48:48.956Z,5.18
2023-05-24T15:53:45.523Z,5.13
2023-05-24T15:56:12.244Z,6.47
2023-05-24T15:58:38.942Z,9.15
2023-05-24T16:01:05.821Z,8.40
2023-05-24T16:03:32.604Z,8.30
2023-05-24T16:05:59.350Z,7.72
2023-05-24T16:08:28.005Z,9.07
2023-05-24T16:10:55.368Z,10.98
2023-05-24T16:13:22.149Z,6.10
2023-05-24T16:15:51.598Z,11.23
2023-05-24T16:18:26.991Z,5.65
2023-05-24T16:20:53.543Z,6.60
2023-05-24T16:23:22.815Z,6.32
2023-05-24T16:25:49.578Z,7.00
2023-05-24T16:28:16.300Z,6.60
2023-05-24T16:30:43.662Z,9.40
2023-05-24T16:33:10.631Z,10.18
2023-05-24T16:35:37.421Z,7.97
2023-05-24T16:38:04.011Z,6.95
2023-05-24T16:40:30.661Z,8.30
2023-05-24T16:42:57.376Z,6.93
2023-05-24T16:45:24.168Z,8.00
2023-05-24T16:47:51.222Z,8.15
2023-05-24T16:50:17.907Z,8.88
2023-05-24T16:52:45.041Z,8.98
2023-05-24T16:55:12.664Z,7.80
2023-05-24T16:57:39.281Z,6.70
2023-05-24T17:00:06.794Z,7.47
2023-05-24T17:02:34.952Z,7.35
2023-05-24T17:05:01.586Z,8.77
2023-05-24T17:07:28.212Z,8.45
2023-05-24T17:09:54.771Z,5.70
2023-05-24T17:12:21.957Z,9.60
2023-05-24T17:14:48.778Z,9.10
2023-05-24T17:17:16.241Z,5.20
2023-05-24T17:19:42.935Z,9.93
2023-05-24T17:22:11.260Z,10.00
2023-05-24T17:24:37.939Z,9.27
2023-05-24T17:27:05.131Z,6.82
2023-05-24T17:29:35.016Z,9.75
2023-05-24T17:32:01.960Z,11.32
2023-05-24T17:34:28.592Z,10.63
2023-05-24T17:36:55.170Z,9.27
2023-05-24T17:39:22.064Z,8.65
2023-05-24T17:41:48.651Z,6.90
2023-05-24T17:44:15.336Z,10.40
2023-05-24T17:46:42.090Z,8.32
2023-05-24T17:49:08.867Z,18.27
2023-05-24T17:51:38.866Z,9.80
2023-05-24T17:54:05.943Z,9.85
2023-05-24T17:56:32.628Z,5.22
2023-05-24T17:58:59.198Z,6.70
2023-05-24T18:01:27.951Z,11.82
2023-05-24T18:03:54.995Z,7.97
2023-05-24T18:06:21.665Z,6.65
2023-05-24T18:08:48.247Z,4.13
2023-05-24T18:11:15.780Z,6.15
2023-05-24T18:13:42.948Z,7.60
2023-05-24T18:16:10.794Z,6.47
2023-05-24T18:18:41.388Z,8.75
2023-05-24T18:21:09.567Z,7.60
2023-05-24T18:23:39.568Z,9.13
2023-05-24T18:26:08.211Z,19.75
2023-05-24T18:28:38.628Z,7.35
2023-05-24T18:31:10.574Z,7.13
2023-05-24T18:33:38.194Z,9.63
2023-05-24T18:36:05.856Z,7.72
2023-05-24T18:38:36.760Z,9.60
2023-05-24T18:41:06.107Z,5.15
2023-05-24T18:46:13.133Z,7.18
2023-05-24T18:48:41.281Z,4.97
2023-05-24T18:51:07.964Z,9.10
2023-05-24T18:53:35.844Z,11.45
2023-05-24T18:56:02.473Z,6.05
2023-05-24T18:58:29.140Z,8.57
2023-05-24T19:00:55.806Z,10.25
2023-05-24T19:03:22.554Z,6.63
2023-05-24T19:05:49.452Z,8.57
2023-05-24T19:08:16.077Z,7.85
2023-05-24T19:10:42.580Z,9.70
2023-05-24T19:13:09.025Z,8.98
2023-05-24T19:15:36.623Z,9.60
2023-05-24T19:18:03.442Z,11.23
2023-05-24T19:20:30.064Z,9.43
2023-05-24T19:22:56.580Z,9.40
2023-05-24T19:25:23.090Z,11.50
2023-05-24T19:27:59.466Z,10.00
2023-05-24T19:30:27.378Z,8.23
2023-05-24T19:32:54.210Z,9.98
2023-05-24T19:35:20.989Z,9.60
2023-05-24T19:37:47.597Z,8.02
2023-05-24T19:40:14.082Z,7.85
2023-05-24T19:42:40.650Z,8.73
2023-05-24T19:45:09.283Z,16.42
2023-05-24T19:47:35.743Z,5.95
2023-05-24T19:50:03.553Z,8.93
2023-05-24T19:52:30.043Z,6.07
2023-05-24T19:54:56.746Z,7.72
2023-05-24T19:57:23.165Z,9.68
2023-05-24T19:59:49.798Z,9.55
2023-05-24T20:02:16.223Z,9.57
2023-05-24T20:04:43.892Z,7.22
2023-05-24T20:07:10.911Z,8.40
2023-05-24T20:09:37.642Z,7.50
2023-05-24T20:12:04.595Z,9.43
2023-05-24T20:14:31.226Z,10.75
2023-05-24T20:16:58.491Z,9.88
2023-05-24T20:19:26.135Z,9.88
2023-05-24T20:21:52.765Z,8.95
2023-05-24T20:24:19.464Z,11.70
2023-05-24T20:26:46.006Z,9.25
2023-05-24T20:29:12.667Z,6.65
2023-05-24T20:31:39.222Z,11.25
2023-05-24T20:37:03.283Z,9.13
2023-05-24T20:39:29.968Z,7.75
2023-05-24T20:41:58.296Z,7.05
2023-05-24T20:44:25.744Z,8.68
2023-05-24T20:46:52.437Z,13.70
2023-05-24T20:49:19.027Z,10.20
2023-05-24T20:51:45.888Z,10.38
2023-05-24T20:54:13.879Z,10.20
2023-05-24T20:56:40.532Z,7.05
2023-05-24T20:59:07.200Z,9.45
2023-05-24T21:01:33.917Z,9.15
2023-05-24T21:04:00.558Z,8.48
2023-05-24T21:06:27.165Z,5.20
2023-05-24T21:08:53.806Z,5.85
2023-05-24T21:11:20.579Z,6.85
2023-05-24T21:13:47.164Z,12.88
2023-05-24T21:16:13.728Z,9.48
2023-05-24T21:18:40.386Z,6.70
2023-05-24T21:21:07.189Z,9.35
2023-05-24T21:23:33.886Z,10.15
2023-05-24T21:26:00.739Z,10.63
2023-05-24T21:28:27.342Z,12.30
2023-05-24T21:30:53.950Z,8.93
2023-05-24T21:33:20.784Z,12.25
2023-05-24T21:35:47.419Z,7.80
2023-05-24T21:38:14.095Z,10.48
2023-05-24T21:40:40.689Z,12.20
2023-05-24T21:43:12.137Z,9.65
2023-05-24T21:45:39.295Z,8.95
2023-05-24T21:48:06.906Z,8.82
2023-05-24T21:50:34.599Z,8.88
2023-05-24T21:53:02.008Z,8.13
2023-05-24T21:55:29.662Z,8.07
2023-05-24T21:57:56.808Z,10.00
2023-05-24T22:00:23.713Z,10.02
2023-05-24T22:02:51.778Z,9.55
2023-05-24T22:05:19.140Z,12.40
2023-05-24T22:07:46.079Z,7.15
2023-05-24T22:10:12.863Z,8.93
2023-05-24T22:12:39.515Z,8.15
2023-05-24T22:15:06.570Z,9.55
2023-05-24T22:17:33.301Z,7.75
2023-05-24T22:20:04.353Z,7.70
2023-05-24T22:22:31.002Z,7.05
2023-05-24T22:24:57.786Z,7.85
2023-05-24T22:27:24.436Z,7.28
2023-05-24T22:29:51.128Z,8.00
2023-05-24T22:32:17.735Z,12.30
2023-05-24T22:34:44.449Z,6.70
2023-05-24T22:37:12.554Z,9.10
2023-05-24T22:39:39.230Z,7.63
2023-05-24T22:42:05.847Z,10.30
2023-05-24T22:44:32.388Z,9.73
2023-05-24T22:47:01.960Z,8.18
2023-05-24T22:49:29.669Z,7.05
2023-05-24T22:51:56.295Z,11.52
2023-05-24T22:54:22.970Z,6.68
2023-05-24T22:56:49.538Z,6.18
2023-05-24T22:59:16.105Z,7.65
2023-05-24T23:01:44.803Z,8.95
2023-05-24T23:04:21.300Z,8.55
2023-05-24T23:06:52.630Z,8.82
2023-05-24T23:09:28.908Z,11.70
2023-05-24T23:11:58.516Z,7.90
2023-05-24T23:14:25.528Z,10.98
2023-05-24T23:16:52.136Z,12.18
2023-05-24T23:19:19.155Z,11.38
2023-05-24T23:21:46.253Z,6.88
2023-05-24T23:24:16.234Z,12.40
2023-05-24T23:26:43.304Z,6.20
2023-05-24T23:29:10.263Z,6.22
2023-05-24T23:31:37.139Z,6.90
2023-05-24T23:34:04.247Z,7.97
2023-05-24T23:36:31.262Z,9.55
2023-05-24T23:38:57.842Z,7.10
2023-05-24T23:41:24.535Z,8.20
2023-05-24T23:43:52.516Z,12.88
2023-05-24T23:46:19.343Z,8.38
2023-05-24T23:48:46.197Z,10.02
2023-05-24T23:51:13.055Z,10.55
2023-05-24T23:53:39.804Z,9.50
2023-05-24T23:56:06.561Z,8.50
2023-05-24T23:58:34.014Z,11.40
